createdAt,value
2019-05-16T00:02:34.558Z,6.25
2019-05-16T00:05:31.088Z,5.97
2019-05-16T00:08:28.517Z,8.30
2019-05-16T00:11:25.572Z,7.10
2019-05-16T00:14:21.252Z,4.87
2019-05-16T00:17:18.877Z,7.28
2019-05-16T00:20:14.829Z,5.08
2019-05-16T00:23:11.657Z,6.37
2019-05-16T00:26:08.196Z,5.00
2019-05-16T00:29:04.897Z,7.30
2019-05-16T00:32:01.864Z,6.75
2019-05-16T00:34:58.381Z,6.70
2019-05-16T00:37:54.152Z,6.83
2019-05-16T00:40:50.533Z,6.80
2019-05-16T00:43:48.655Z,6.17
2019-05-16T00:46:45.682Z,7.17
2019-05-16T00:49:41.552Z,7.40
2019-05-16T00:52:39.315Z,6.45
2019-05-16T00:55:38.734Z,6.28
2019-05-16T00:58:38.035Z,5.47
2019-05-16T01:01:34.226Z,8.28
2019-05-16T01:04:30.065Z,7.03
2019-05-16T01:07:27.722Z,9.63
2019-05-16T01:10:25.200Z,9.08
2019-05-16T01:13:21.147Z,7.55
2019-05-16T01:16:18.718Z,6.40
2019-05-16T01:19:15.421Z,6.92
2019-05-16T01:22:12.069Z,11.55
2019-05-16T01:25:09.811Z,6.87
2019-05-16T01:28:08.667Z,7.65
2019-05-16T01:31:05.181Z,5.08
2019-05-16T01:34:01.859Z,5.30
2019-05-16T01:36:58.938Z,8.35
2019-05-16T01:39:55.451Z,7.97
2019-05-16T01:42:51.458Z,9.30
2019-05-16T01:45:48.701Z,9.93
2019-05-16T01:48:48.265Z,5.55
2019-05-16T01:51:43.587Z,4.92
2019-05-16T01:54:40.520Z,6.62
2019-05-16T01:57:38.831Z,7.20
2019-05-16T02:00:37.590Z,10.35
2019-05-16T02:03:31.977Z,8.35
2019-05-16T02:06:28.806Z,5.08
2019-05-16T02:09:27.902Z,5.08
2019-05-16T02:12:23.848Z,6.03
2019-05-16T02:15:20.610Z,6.53
2019-05-16T02:18:18.536Z,3.72
2019-05-16T02:21:14.262Z,8.13
2019-05-16T02:24:11.327Z,6.25
2019-05-16T02:27:09.730Z,6.85
2019-05-16T02:30:11.925Z,10.88
2019-05-16T02:33:05.670Z,9.10
2019-05-16T02:36:02.314Z,5.75
2019-05-16T02:39:01.843Z,7.40
2019-05-16T02:42:01.091Z,6.00
2019-05-16T02:44:56.237Z,3.83
2019-05-16T02:47:52.258Z,5.92
2019-05-16T02:50:51.184Z,7.95
2019-05-16T02:53:46.098Z,6.97
2019-05-16T02:56:42.509Z,4.50
2019-05-16T02:59:41.521Z,6.87
2019-05-16T03:02:41.573Z,5.87
2019-05-16T03:05:35.818Z,8.48
2019-05-16T03:08:34.169Z,9.03
2019-05-16T03:11:31.558Z,11.85
2019-05-16T03:14:31.715Z,6.62
2019-05-16T03:17:34.434Z,5.62
2019-05-16T03:20:33.366Z,6.95
2019-05-16T03:23:30.803Z,8.78
2019-05-16T03:26:41.636Z,10.18
2019-05-16T03:29:41.583Z,11.95
2019-05-16T03:32:36.147Z,9.33
2019-05-16T03:35:34.313Z,11.80
2019-05-16T03:38:30.951Z,10.05
2019-05-16T03:41:30.845Z,13.22
2019-05-16T03:44:25.888Z,9.88
2019-05-16T03:47:22.323Z,10.30
2019-05-16T03:50:21.706Z,10.53
2019-05-16T03:53:20.729Z,7.33
2019-05-16T03:56:15.093Z,9.45
2019-05-16T03:59:11.215Z,8.73
2019-05-16T04:02:11.090Z,7.50
2019-05-16T04:05:07.298Z,8.43
2019-05-16T04:08:18.446Z,8.10
2019-05-16T04:11:04.023Z,7.95
2019-05-16T04:14:01.496Z,7.67
2019-05-16T04:17:01.303Z,7.75
2019-05-16T04:20:01.889Z,11.00
2019-05-16T04:22:56.932Z,9.23
2019-05-16T04:26:07.637Z,8.03
2019-05-16T04:29:03.494Z,10.30
2019-05-16T04:32:01.525Z,6.00
2019-05-16T04:34:57.776Z,7.90
2019-05-16T04:37:54.496Z,8.48
2019-05-16T04:40:51.857Z,5.92
2019-05-16T04:43:50.569Z,7.55
2019-05-16T04:46:50.728Z,5.03
2019-05-16T04:49:45.571Z,6.67
2019-05-16T04:52:42.269Z,4.65
2019-05-16T04:55:38.008Z,4.37
2019-05-16T04:58:40.870Z,6.35
2019-05-16T05:01:36.743Z,6.78
2019-05-16T05:04:33.471Z,6.35
2019-05-16T05:07:31.220Z,4.95
2019-05-16T05:10:27.668Z,6.72
2019-05-16T05:13:24.149Z,4.83
2019-05-16T05:16:20.657Z,6.37
2019-05-16T05:19:20.042Z,6.12
2019-05-16T05:22:14.454Z,4.45
2019-05-16T05:25:11.431Z,8.33
2019-05-16T05:28:09.985Z,4.92
2019-05-16T05:31:05.764Z,5.12
2019-05-16T05:34:02.521Z,4.40
2019-05-16T05:37:00.325Z,4.03
2019-05-16T05:39:59.791Z,3.05
2019-05-16T05:42:55.603Z,5.15
2019-05-16T05:45:52.144Z,3.65
2019-05-16T05:48:50.682Z,3.72
2019-05-16T05:51:50.045Z,3.40
2019-05-16T05:54:47.478Z,4.47
2019-05-16T05:57:43.580Z,5.15
2019-05-16T06:00:40.744Z,5.20
2019-05-16T06:03:39.886Z,3.67
2019-05-16T06:06:37.379Z,5.42
2019-05-16T06:09:34.396Z,16.45
2019-05-16T06:12:30.862Z,4.95
2019-05-16T06:15:27.254Z,2.47
2019-05-16T06:18:23.651Z,3.52
2019-05-16T06:21:20.617Z,12.23
2019-05-16T06:24:17.092Z,3.92
2019-05-16T06:27:13.715Z,13.35
2019-05-16T06:30:11.606Z,5.40
2019-05-16T06:33:10.231Z,3.55
2019-05-16T06:36:07.097Z,5.37
2019-05-16T06:39:03.807Z,6.60
2019-05-16T06:42:00.665Z,5.40
2019-05-16T06:44:56.614Z,3.42
2019-05-16T06:47:53.437Z,3.55
2019-05-16T06:50:51.630Z,4.22
2019-05-16T06:53:46.823Z,3.92
2019-05-16T06:56:43.316Z,4.30
2019-05-16T06:59:40.484Z,3.92
2019-05-16T07:02:36.835Z,3.85
2019-05-16T07:05:32.716Z,5.58
2019-05-16T07:08:30.950Z,3.00
2019-05-16T07:11:30.478Z,2.85
2019-05-16T07:14:28.383Z,5.30
2019-05-16T07:17:23.199Z,2.35
2019-05-16T07:20:21.284Z,2.92
2019-05-16T07:23:20.622Z,4.42
2019-05-16T07:26:15.761Z,2.10
2019-05-16T07:29:12.092Z,2.67
2019-05-16T07:32:08.706Z,2.25
2019-05-16T07:35:05.399Z,3.47
2019-05-16T07:38:01.116Z,2.58
2019-05-16T07:40:59.906Z,2.87
2019-05-16T07:43:56.676Z,1.50
2019-05-16T07:46:53.738Z,1.67
2019-05-16T07:49:50.238Z,1.40
2019-05-16T07:52:46.474Z,1.32
2019-05-16T07:55:43.490Z,1.05
2019-05-16T07:58:41.343Z,2.30
2019-05-16T08:01:39.728Z,2.00
2019-05-16T08:04:34.778Z,5.67
2019-05-16T08:07:33.603Z,3.77
2019-05-16T08:10:37.914Z,1.82
2019-05-16T08:13:27.162Z,1.72
2019-05-16T08:16:24.242Z,1.30
2019-05-16T08:19:24.931Z,1.50
2019-05-16T08:22:18.980Z,1.70
2019-05-16T08:25:25.442Z,4.37
2019-05-16T08:28:22.565Z,19.48
2019-05-16T08:31:21.512Z,2.83
2019-05-16T08:34:17.194Z,5.25
2019-05-16T08:37:34.089Z,3.20
2019-05-16T08:40:12.733Z,1.35
2019-05-16T08:43:11.717Z,1.57
2019-05-16T08:46:07.201Z,2.77
2019-05-16T08:49:04.148Z,1.60
2019-05-16T08:52:01.609Z,4.03
2019-05-16T08:55:03.094Z,2.60
2019-05-16T08:57:56.577Z,1.62
2019-05-16T09:00:56.060Z,6.20
2019-05-16T09:03:52.018Z,3.90
2019-05-16T09:06:52.356Z,1.60
2019-05-16T09:09:51.209Z,2.33
2019-05-16T09:12:43.964Z,2.33
2019-05-16T09:15:42.083Z,2.75
2019-05-16T09:18:41.152Z,4.15
2019-05-16T09:21:38.347Z,2.90
2019-05-16T09:24:33.751Z,2.98
2019-05-16T09:27:32.981Z,5.03
2019-05-16T09:30:29.642Z,3.00
2019-05-16T09:33:26.925Z,3.15
2019-05-16T09:36:23.485Z,1.77
2019-05-16T09:39:19.356Z,2.95
2019-05-16T09:42:17.138Z,4.83
2019-05-16T09:45:13.422Z,5.70
2019-05-16T09:48:09.105Z,1.83
2019-05-16T09:51:06.695Z,4.15
2019-05-16T09:54:03.506Z,3.62
2019-05-16T09:56:59.532Z,11.38
2019-05-16T09:59:57.261Z,4.80
2019-05-16T10:02:53.510Z,2.67
2019-05-16T10:05:49.254Z,4.78
2019-05-16T10:08:46.497Z,3.75
2019-05-16T10:11:43.347Z,6.17
2019-05-16T10:14:40.087Z,4.65
2019-05-16T10:17:36.971Z,2.33
2019-05-16T10:20:33.493Z,2.40
2019-05-16T10:23:29.790Z,2.83
2019-05-16T10:26:27.752Z,1.52
2019-05-16T10:29:23.007Z,3.23
2019-05-16T10:32:19.038Z,1.55
2019-05-16T10:35:16.072Z,2.07
2019-05-16T10:38:12.496Z,2.03
2019-05-16T10:41:08.319Z,2.93
2019-05-16T10:44:06.272Z,3.17
2019-05-16T10:47:01.939Z,3.20
2019-05-16T10:49:58.244Z,6.50
2019-05-16T10:53:28.338Z,2.17
2019-05-16T10:56:10.993Z,4.10
2019-05-16T10:59:46.693Z,4.43
2019-05-16T11:02:07.566Z,9.75
2019-05-16T11:05:25.185Z,6.20
2019-05-16T11:08:08.108Z,2.37
2019-05-16T11:11:03.319Z,3.10
2019-05-16T11:14:00.225Z,2.03
2019-05-16T11:16:58.122Z,2.42
2019-05-16T11:19:56.656Z,2.07
2019-05-16T11:22:53.729Z,2.55
2019-05-16T11:25:49.933Z,3.98
2019-05-16T11:28:48.639Z,3.22
2019-05-16T11:31:46.646Z,4.25
2019-05-16T11:34:41.821Z,2.92
2019-05-16T11:37:38.699Z,8.10
2019-05-16T11:40:35.629Z,5.22
2019-05-16T11:43:32.154Z,4.85
2019-05-16T11:46:28.388Z,13.05
2019-05-16T11:49:27.395Z,13.80
2019-05-16T11:52:22.826Z,4.80
2019-05-16T11:55:19.722Z,4.08
2019-05-16T11:58:18.060Z,2.55
2019-05-16T12:01:16.372Z,3.02
2019-05-16T12:04:11.958Z,4.37
2019-05-16T12:07:09.395Z,3.87
2019-05-16T12:10:07.586Z,2.87
2019-05-16T12:13:23.813Z,4.97
2019-05-16T12:16:07.575Z,3.35
2019-05-16T12:19:03.950Z,2.65
2019-05-16T12:22:00.155Z,6.03
2019-05-16T12:24:57.438Z,3.33
2019-05-16T12:27:56.751Z,3.25
2019-05-16T12:30:52.486Z,3.27
2019-05-16T12:33:48.650Z,4.20
2019-05-16T12:36:47.225Z,3.98
2019-05-16T12:39:42.816Z,3.35
2019-05-16T12:42:39.046Z,7.10
2019-05-16T12:45:35.462Z,3.35
2019-05-16T12:48:31.057Z,5.17
2019-05-16T12:51:27.331Z,3.97
2019-05-16T12:54:23.995Z,3.50
2019-05-16T12:57:26.666Z,3.33
2019-05-16T13:00:18.981Z,7.83
2019-05-16T13:03:16.978Z,4.67
2019-05-16T13:06:13.246Z,3.98
2019-05-16T13:09:09.808Z,4.40
2019-05-16T13:12:07.040Z,3.83
2019-05-16T13:15:02.702Z,5.55
2019-05-16T13:17:59.733Z,5.00
2019-05-16T13:20:57.395Z,5.80
2019-05-16T13:23:52.725Z,4.58
2019-05-16T13:26:49.608Z,4.67
2019-05-16T13:29:47.651Z,12.95
2019-05-16T13:32:43.096Z,9.28
2019-05-16T13:35:39.886Z,6.90
2019-05-16T13:38:36.157Z,6.40
2019-05-16T13:41:34.453Z,4.97
2019-05-16T13:44:30.914Z,4.67
2019-05-16T13:47:27.292Z,4.87
2019-05-16T13:50:23.319Z,4.53
2019-05-16T13:53:20.192Z,3.70
2019-05-16T13:56:17.577Z,5.05
2019-05-16T13:59:17.165Z,5.67
2019-05-16T14:02:12.690Z,4.30
2019-05-16T14:05:11.654Z,4.37
2019-05-16T14:08:07.768Z,5.75
2019-05-16T14:11:08.950Z,4.65
2019-05-16T14:14:04.705Z,5.03
2019-05-16T14:16:59.719Z,4.72
2019-05-16T14:19:57.300Z,5.15
2019-05-16T14:22:57.147Z,4.17
2019-05-16T14:25:51.338Z,4.87
2019-05-16T14:28:48.871Z,6.25
2019-05-16T14:31:46.915Z,4.63
2019-05-16T14:34:50.227Z,4.22
2019-05-16T14:37:46.884Z,5.30
2019-05-16T14:40:43.140Z,6.20
2019-05-16T14:43:39.841Z,5.67
2019-05-16T14:46:38.200Z,5.17
2019-05-16T14:49:37.488Z,5.87
2019-05-16T14:52:36.430Z,8.20
2019-05-16T14:55:31.811Z,4.67
2019-05-16T14:58:31.001Z,5.55
2019-05-16T15:01:27.763Z,6.57
2019-05-16T15:04:29.822Z,6.25
2019-05-16T15:07:22.074Z,5.25
2019-05-16T15:10:19.124Z,7.62
2019-05-16T15:13:17.254Z,6.83
2019-05-16T15:16:12.019Z,5.93
2019-05-16T15:19:08.727Z,5.60
2019-05-16T15:22:07.882Z,6.43
2019-05-16T15:25:02.851Z,5.37
2019-05-16T15:28:00.554Z,6.30
2019-05-16T15:30:57.531Z,6.67
2019-05-16T15:33:54.273Z,6.27
2019-05-16T15:36:49.609Z,6.40
2019-05-16T15:39:47.609Z,6.10
2019-05-16T15:42:43.007Z,6.90
2019-05-16T15:45:45.142Z,7.33
2019-05-16T15:48:39.824Z,6.40
2019-05-16T15:51:36.946Z,6.80
2019-05-16T15:54:33.605Z,6.20
2019-05-16T15:57:32.686Z,6.90
2019-05-16T16:00:42.242Z,6.53
2019-05-16T16:03:38.706Z,6.73
2019-05-16T16:06:37.794Z,5.60
2019-05-16T16:09:32.714Z,9.45
2019-05-16T16:12:29.457Z,7.85
2019-05-16T16:15:28.056Z,6.58
2019-05-16T16:18:27.496Z,6.87
2019-05-16T16:21:27.451Z,7.80
2019-05-16T16:24:23.240Z,7.05
2019-05-16T16:27:19.783Z,7.12
2019-05-16T16:30:18.417Z,5.90
2019-05-16T16:33:24.981Z,9.23
2019-05-16T16:36:11.894Z,9.58
2019-05-16T16:39:09.021Z,8.00
2019-05-16T16:42:07.419Z,6.53
2019-05-16T16:45:03.531Z,5.95
2019-05-16T16:47:59.403Z,7.17
2019-05-16T16:50:57.452Z,7.85
2019-05-16T16:53:53.314Z,5.33
2019-05-16T16:56:50.641Z,5.97
2019-05-16T16:59:47.643Z,5.92
2019-05-16T17:02:59.347Z,6.30
2019-05-16T17:05:43.107Z,5.97
2019-05-16T17:08:38.869Z,5.67
2019-05-16T17:11:37.973Z,7.90
2019-05-16T17:14:36.887Z,7.03
2019-05-16T17:17:33.063Z,6.60
2019-05-16T17:20:29.958Z,7.10
2019-05-16T17:23:26.850Z,7.28
2019-05-16T17:26:22.627Z,6.37
2019-05-16T17:29:20.213Z,6.17
2019-05-16T17:32:16.718Z,6.40
2019-05-16T17:35:18.335Z,6.47
2019-05-16T17:38:12.739Z,8.43
2019-05-16T17:41:08.660Z,25.75
2019-05-16T17:44:04.390Z,29.65
2019-05-16T17:47:00.428Z,22.65
2019-05-16T17:49:57.461Z,9.05
2019-05-16T17:52:54.334Z,6.72
2019-05-16T17:55:50.473Z,7.45
2019-05-16T17:58:47.332Z,7.87
2019-05-16T18:01:46.362Z,7.67
2019-05-16T18:04:43.037Z,8.95
2019-05-16T18:07:40.439Z,10.58
2019-05-16T18:10:36.796Z,9.60
2019-05-16T18:13:32.607Z,9.23
2019-05-16T18:16:29.512Z,9.88
2019-05-16T18:19:26.515Z,11.10
2019-05-16T18:22:24.646Z,8.48
2019-05-16T18:25:23.428Z,10.00
2019-05-16T18:28:19.458Z,10.85
2019-05-16T18:31:17.231Z,9.78
2019-05-16T18:34:17.089Z,11.05
2019-05-16T18:37:17.158Z,13.08
2019-05-16T18:40:13.358Z,10.48
2019-05-16T18:43:12.530Z,10.48
2019-05-16T18:46:08.569Z,11.75
2019-05-16T18:49:07.084Z,12.60
2019-05-16T18:52:02.888Z,11.57
2019-05-16T18:54:59.322Z,12.07
2019-05-16T18:57:57.581Z,13.58
2019-05-16T19:00:58.469Z,14.65
2019-05-16T19:03:54.557Z,15.43
2019-05-16T19:06:51.692Z,14.38
2019-05-16T19:09:48.472Z,13.40
2019-05-16T19:12:47.545Z,11.85
2019-05-16T19:15:42.887Z,12.63
2019-05-16T19:18:39.982Z,12.65
2019-05-16T19:21:36.921Z,13.18
2019-05-16T19:24:33.109Z,13.32
2019-05-16T19:27:30.018Z,12.55
2019-05-16T19:30:27.120Z,14.05
2019-05-16T19:33:23.579Z,13.50
2019-05-16T19:36:20.218Z,11.73
2019-05-16T19:39:17.687Z,13.48
2019-05-16T19:42:13.911Z,17.25
2019-05-16T19:45:11.779Z,13.75
2019-05-16T19:48:09.071Z,15.50
2019-05-16T19:51:07.195Z,14.93
2019-05-16T19:54:02.828Z,15.28
2019-05-16T19:56:58.975Z,16.12
2019-05-16T19:59:56.667Z,17.02
2019-05-16T20:02:53.690Z,15.25
2019-05-16T20:05:52.483Z,15.63
2019-05-16T20:08:48.857Z,14.55
2019-05-16T20:11:46.372Z,16.48
2019-05-16T20:14:43.455Z,16.45
2019-05-16T20:17:53.902Z,12.65
2019-05-16T20:20:38.066Z,15.60
2019-05-16T20:23:36.847Z,16.97
2019-05-16T20:26:32.524Z,18.75
2019-05-16T20:29:29.065Z,14.98
2019-05-16T20:32:27.636Z,15.13
2019-05-16T20:35:26.694Z,18.02
2019-05-16T20:38:26.625Z,19.65
2019-05-16T20:41:23.274Z,14.98
2019-05-16T20:44:22.567Z,18.60
2019-05-16T20:47:21.866Z,22.40
2019-05-16T20:50:19.449Z,17.40
2019-05-16T20:53:19.749Z,18.02
2019-05-16T20:56:18.248Z,15.72
2019-05-16T20:59:18.265Z,19.55
2019-05-16T21:02:16.348Z,17.35
2019-05-16T21:05:13.979Z,17.27
2019-05-16T21:08:10.489Z,19.55
2019-05-16T21:11:07.700Z,14.18
2019-05-16T21:14:04.340Z,18.67
2019-05-16T21:17:02.242Z,15.98
2019-05-16T21:19:58.644Z,17.42
2019-05-16T21:22:56.424Z,18.15
2019-05-16T21:25:52.849Z,20.27
2019-05-16T21:28:49.268Z,20.27
2019-05-16T21:31:47.317Z,20.65
2019-05-16T21:34:43.010Z,19.02
2019-05-16T21:37:41.396Z,22.15
2019-05-16T21:40:37.754Z,19.02
2019-05-16T21:43:33.845Z,19.60
2019-05-16T21:46:30.702Z,20.05
2019-05-16T21:49:30.896Z,18.60
2019-05-16T21:52:28.867Z,20.43
2019-05-16T21:55:27.311Z,20.08
2019-05-16T21:58:32.526Z,20.27
2019-05-16T22:01:30.182Z,19.25
2019-05-16T22:04:25.891Z,21.97
2019-05-16T22:07:33.055Z,20.55
2019-05-16T22:10:23.775Z,22.27
2019-05-16T22:13:21.718Z,19.77
2019-05-16T22:16:18.414Z,20.97
2019-05-16T22:19:16.492Z,23.15
2019-05-16T22:22:13.793Z,23.38
2019-05-16T22:25:14.031Z,21.10
2019-05-16T22:28:10.582Z,22.07
2019-05-16T22:31:07.481Z,22.55
2019-05-16T22:34:03.782Z,21.30
2019-05-16T22:36:59.970Z,21.70
2019-05-16T22:39:57.197Z,20.92
2019-05-16T22:42:53.790Z,22.75
2019-05-16T22:45:50.626Z,19.95
2019-05-16T22:48:46.899Z,20.32
2019-05-16T22:51:45.191Z,21.55
2019-05-16T22:54:40.802Z,20.17
2019-05-16T22:57:37.351Z,19.75
2019-05-16T23:00:34.321Z,20.77
2019-05-16T23:03:31.028Z,23.98
2019-05-16T23:06:26.983Z,21.23
2019-05-16T23:09:23.740Z,25.68
2019-05-16T23:12:19.991Z,23.83
2019-05-16T23:15:17.210Z,21.97
2019-05-16T23:18:14.030Z,23.40
2019-05-16T23:21:10.800Z,28.20
2019-05-16T23:24:07.483Z,24.27
2019-05-16T23:27:03.084Z,21.20
2019-05-16T23:29:58.892Z,24.37
2019-05-16T23:32:56.276Z,23.57
2019-05-16T23:35:53.177Z,23.22
2019-05-16T23:38:49.321Z,24.92
2019-05-16T23:41:47.442Z,23.87
2019-05-16T23:44:44.615Z,26.42
2019-05-16T23:47:41.352Z,22.73
2019-05-16T23:50:38.102Z,25.25
2019-05-16T23:53:36.932Z,23.30
2019-05-16T23:56:31.999Z,24.10
2019-05-16T23:59:28.918Z,24.52
